createdAt,value
2022-11-21T00:01:14.122Z,100041.31
2022-11-21T00:03:41.006Z,100022.81
2022-11-21T00:06:08.007Z,100027.91
2022-11-21T00:08:34.821Z,100019.22
2022-11-21T00:11:01.653Z,100014.13
2022-11-21T00:13:28.554Z,99998.31
2022-11-21T00:15:55.300Z,99995.97
2022-11-21T00:18:22.069Z,100001.25
2022-11-21T00:20:48.860Z,100006.34
2022-11-21T00:23:15.730Z,100006.19
2022-11-21T00:25:42.611Z,99997.41
2022-11-21T00:28:09.410Z,99979.16
2022-11-21T00:30:36.252Z,99972.00
2022-11-21T00:33:03.173Z,99970.03
2022-11-21T00:35:31.101Z,99967.34
2022-11-21T00:37:58.043Z,99969.34
2022-11-21T00:40:24.942Z,99962.34
2022-11-21T00:42:51.812Z,99939.81
2022-11-21T00:45:24.133Z,99946.75
2022-11-21T00:47:51.390Z,99931.63
2022-11-21T00:50:18.294Z,99924.97
2022-11-21T00:52:45.118Z,99920.41
2022-11-21T00:55:11.895Z,99905.00
2022-11-21T00:57:38.689Z,99903.38
2022-11-21T01:00:06.262Z,99896.50
2022-11-21T01:02:33.329Z,99887.38
2022-11-21T01:05:00.229Z,99881.81
2022-11-21T01:07:27.130Z,99871.44
2022-11-21T01:09:54.150Z,99849.19
2022-11-21T01:12:20.994Z,99840.84
2022-11-21T01:14:47.819Z,99842.47
2022-11-21T01:17:14.697Z,99830.09
2022-11-21T01:19:41.535Z,99825.88
2022-11-21T01:22:08.600Z,99822.09
2022-11-21T01:24:35.575Z,99823.31
2022-11-21T01:27:02.408Z,99826.28
2022-11-21T01:29:29.408Z,99811.19
2022-11-21T01:31:56.397Z,99819.25
2022-11-21T01:34:23.327Z,99821.59
2022-11-21T01:36:50.112Z,99810.56
2022-11-21T01:39:16.999Z,99807.09
2022-11-21T01:41:45.972Z,99803.97
2022-11-21T01:44:28.030Z,99804.50
2022-11-21T01:46:55.567Z,99791.03
2022-11-21T01:49:27.402Z,99777.94
2022-11-21T01:51:56.728Z,99769.69
2022-11-21T01:54:34.281Z,99767.25
2022-11-21T01:57:17.436Z,99757.41
2022-11-21T01:59:47.963Z,99761.41
2022-11-21T02:02:20.849Z,99775.31
2022-11-21T02:04:49.925Z,99774.13
2022-11-21T02:07:21.171Z,99782.13
2022-11-21T02:09:53.656Z,99763.69
2022-11-21T02:12:24.832Z,99772.53
2022-11-21T02:14:53.225Z,99768.69
2022-11-21T02:17:20.077Z,99771.97
2022-11-21T02:19:57.513Z,99770.38
2022-11-21T02:22:28.098Z,99764.53
2022-11-21T02:25:08.474Z,99767.75
2022-11-21T02:27:35.833Z,99770.59
2022-11-21T02:30:04.647Z,99774.63
2022-11-21T02:32:46.883Z,99759.34
2022-11-21T02:35:15.836Z,99760.69
2022-11-21T02:37:45.137Z,99757.16
2022-11-21T02:40:18.336Z,99747.47
2022-11-21T02:43:01.519Z,99750.09
2022-11-21T02:45:44.299Z,99739.75
2022-11-21T02:48:12.230Z,99736.75
2022-11-21T02:50:41.991Z,99734.50
2022-11-21T02:53:12.051Z,99720.75
2022-11-21T02:55:39.298Z,99717.59
2022-11-21T02:58:06.537Z,99712.13
2022-11-21T03:00:35.081Z,99721.34
2022-11-21T03:03:02.114Z,99706.34
2022-11-21T03:05:28.988Z,99705.16
2022-11-21T03:25:35.758Z,99668.38
2022-11-21T03:28:02.564Z,99666.94
2022-11-21T03:30:29.472Z,99655.03
2022-11-21T03:32:57.524Z,99649.50
2022-11-21T03:35:24.848Z,99660.66
2022-11-21T03:37:51.721Z,99667.75
2022-11-21T03:40:18.587Z,99650.97
2022-11-21T03:42:45.511Z,99660.44
2022-11-21T03:45:12.464Z,99635.00
2022-11-21T03:47:39.410Z,99648.47
2022-11-21T03:50:06.684Z,99644.06
2022-11-21T03:52:33.781Z,99636.06
2022-11-21T03:55:00.574Z,99630.38
2022-11-21T03:57:27.426Z,99631.97
2022-11-21T03:59:54.190Z,99627.94
2022-11-21T04:02:21.048Z,99610.00
2022-11-21T04:04:47.975Z,99618.75
2022-11-21T04:07:14.934Z,99620.03
2022-11-21T04:09:41.854Z,99610.09
2022-11-21T04:12:08.944Z,99617.72
2022-11-21T04:14:35.901Z,99618.56
2022-11-21T04:17:02.649Z,99611.47
2022-11-21T04:19:29.541Z,99610.41
2022-11-21T04:21:56.412Z,99602.91
2022-11-21T04:24:23.257Z,99597.34
2022-11-21T04:26:50.089Z,99611.28
2022-11-21T04:29:16.958Z,99604.94
2022-11-21T04:31:43.847Z,99601.41
2022-11-21T04:34:10.925Z,99591.47
2022-11-21T04:36:37.884Z,99597.09
2022-11-21T04:39:04.947Z,99581.63
2022-11-21T04:41:31.983Z,99587.19
2022-11-21T04:43:58.829Z,99583.59
2022-11-21T04:46:25.716Z,99583.16
2022-11-21T04:48:52.622Z,99590.34
2022-11-21T04:51:19.518Z,99584.28
2022-11-21T04:53:46.341Z,99565.16
2022-11-21T04:56:16.640Z,99568.69
2022-11-21T04:58:44.971Z,99548.81
2022-11-21T05:01:12.598Z,99564.25
2022-11-21T05:03:39.736Z,99544.72
2022-11-21T05:06:06.617Z,99538.69
2022-11-21T05:08:34.014Z,99544.25
2022-11-21T05:11:19.614Z,99558.19
2022-11-21T05:13:47.177Z,99555.34
2022-11-21T05:16:14.087Z,99554.09
2022-11-21T05:18:40.886Z,99535.38
2022-11-21T05:21:07.716Z,99532.13
2022-11-21T05:23:34.626Z,99529.78
2022-11-21T05:26:01.833Z,99533.00
2022-11-21T05:28:28.778Z,99531.78
2022-11-21T05:30:55.594Z,99535.81
2022-11-21T05:33:22.430Z,99522.69
2022-11-21T05:35:49.554Z,99529.13
2022-11-21T05:38:16.540Z,99520.81
2022-11-21T05:40:43.359Z,99526.84
2022-11-21T05:43:30.999Z,99517.81
2022-11-21T05:45:57.832Z,99526.31
2022-11-21T05:48:24.757Z,99529.59
2022-11-21T05:50:51.624Z,99523.28
2022-11-21T05:53:18.944Z,99513.75
2022-11-21T05:55:46.584Z,99520.16
2022-11-21T05:58:13.821Z,99515.00
2022-11-21T06:00:40.686Z,99507.84
2022-11-21T06:03:28.872Z,99510.25
2022-11-21T06:05:58.675Z,99492.31
2022-11-21T06:08:25.969Z,99511.47
2022-11-21T06:10:52.905Z,99513.44
2022-11-21T06:13:22.547Z,99507.84
2022-11-21T06:15:51.678Z,99492.66
2022-11-21T06:18:19.178Z,99502.63
2022-11-21T06:20:46.474Z,99521.81
2022-11-21T06:23:13.365Z,99531.81
2022-11-21T06:25:40.314Z,99550.56
2022-11-21T06:28:07.023Z,99576.88
2022-11-21T06:30:33.953Z,99561.88
2022-11-21T06:33:04.114Z,99557.06
2022-11-21T06:35:30.980Z,99531.63
2022-11-21T06:38:01.100Z,99526.25
2022-11-21T06:40:27.986Z,99560.63
2022-11-21T06:42:54.904Z,99570.91
2022-11-21T06:45:21.630Z,99575.25
2022-11-21T06:47:48.591Z,99560.72
2022-11-21T06:50:15.774Z,99557.44
2022-11-21T06:52:42.638Z,99563.78
2022-11-21T06:55:10.877Z,99545.94
2022-11-21T06:57:37.851Z,99533.19
2022-11-21T07:00:06.032Z,99521.72
2022-11-21T07:02:32.997Z,99530.47
2022-11-21T07:04:59.850Z,99550.03
2022-11-21T07:07:26.749Z,99549.38
2022-11-21T07:09:53.601Z,99544.28
2022-11-21T07:12:38.984Z,99532.44
2022-11-21T07:15:06.500Z,99540.09
2022-11-21T07:17:33.258Z,99545.69
2022-11-21T07:20:00.103Z,99550.91
2022-11-21T07:22:26.922Z,99540.94
2022-11-21T07:24:53.808Z,99519.03
2022-11-21T07:27:20.639Z,99533.00
2022-11-21T07:29:47.471Z,99536.53
2022-11-21T07:32:15.167Z,99529.00
2022-11-21T07:34:41.971Z,99526.22
2022-11-21T07:37:08.897Z,99540.56
2022-11-21T07:39:35.737Z,99538.94
2022-11-21T07:42:02.661Z,99522.28
2022-11-21T07:44:30.046Z,99538.94
2022-11-21T07:46:56.927Z,99531.78
2022-11-21T07:49:23.801Z,99528.72
2022-11-21T07:51:50.903Z,99539.13
2022-11-21T07:54:17.826Z,99549.72
2022-11-21T07:56:44.672Z,99539.50
2022-11-21T07:59:11.685Z,99549.09
2022-11-21T08:01:43.990Z,99565.09
2022-11-21T08:04:12.180Z,99550.94
2022-11-21T08:06:39.145Z,99550.97
2022-11-21T08:09:05.969Z,99547.72
2022-11-21T08:11:32.899Z,99544.09
2022-11-21T08:13:59.835Z,99559.13
2022-11-21T08:16:28.295Z,99563.78
2022-11-21T08:18:55.266Z,99551.38
2022-11-21T08:21:22.236Z,99553.31
2022-11-21T08:23:49.327Z,99552.94
2022-11-21T08:26:16.744Z,99551.66
2022-11-21T08:28:43.658Z,99554.16
2022-11-21T08:31:10.850Z,99558.53
2022-11-21T08:33:37.718Z,99553.31
2022-11-21T08:36:07.903Z,99556.53
2022-11-21T08:38:34.768Z,99548.59
2022-11-21T08:41:20.145Z,99553.91
2022-11-21T08:43:47.031Z,99556.53
2022-11-21T08:46:14.051Z,99552.44
2022-11-21T08:48:40.923Z,99551.13
2022-11-21T08:51:07.762Z,99551.56
2022-11-21T08:53:34.559Z,99544.59
2022-11-21T08:56:04.182Z,99552.31
2022-11-21T08:58:31.609Z,99544.75
2022-11-21T09:00:59.712Z,99541.84
2022-11-21T09:03:30.798Z,99531.53
2022-11-21T09:05:59.928Z,99541.38
2022-11-21T09:08:26.968Z,99533.28
2022-11-21T09:10:53.824Z,99533.59
2022-11-21T09:13:20.795Z,99519.19
2022-11-21T09:16:06.489Z,99511.56
2022-11-21T09:18:33.586Z,99511.03
2022-11-21T09:21:00.587Z,99513.56
2022-11-21T09:23:27.449Z,99498.38
2022-11-21T09:25:54.458Z,99495.63
2022-11-21T09:28:21.419Z,99485.09
2022-11-21T09:30:48.386Z,99481.22
2022-11-21T09:33:17.076Z,99469.06
2022-11-21T09:35:44.170Z,99479.34
2022-11-21T09:38:11.450Z,99475.81
2022-11-21T09:40:43.735Z,99473.03
2022-11-21T09:43:36.342Z,99459.94
2022-11-21T09:46:06.169Z,99456.44
2022-11-21T09:49:05.126Z,99444.28
2022-11-21T09:51:32.356Z,99441.91
2022-11-21T09:54:07.715Z,99450.06
2022-11-21T09:56:41.400Z,99453.28
2022-11-21T09:59:38.914Z,99453.28
2022-11-21T10:02:18.180Z,99459.28
2022-11-21T10:04:47.173Z,99452.13
2022-11-21T10:07:22.527Z,99446.84
2022-11-21T10:10:10.523Z,99438.09
2022-11-21T10:12:44.330Z,99443.19
2022-11-21T10:15:54.068Z,99434.25
2022-11-21T10:18:45.486Z,99425.22
2022-11-21T10:21:24.490Z,99414.00
2022-11-21T10:24:12.621Z,99415.44
2022-11-21T10:26:49.616Z,99400.63
2022-11-21T10:29:19.471Z,99386.16
2022-11-21T10:31:47.202Z,99394.31
2022-11-21T10:34:19.870Z,99401.91
2022-11-21T10:36:55.604Z,99419.72
2022-11-21T10:39:41.380Z,99421.91
2022-11-21T10:42:58.201Z,99420.75
2022-11-21T10:45:25.372Z,99419.81
2022-11-21T10:47:53.526Z,99402.91
2022-11-21T10:50:49.200Z,99404.63
2022-11-21T10:53:40.256Z,99406.09
2022-11-21T10:56:14.791Z,99391.97
2022-11-21T10:58:44.395Z,99370.94
2022-11-21T11:01:31.067Z,99372.13
2022-11-21T11:04:28.556Z,99372.78
2022-11-21T11:06:57.501Z,99374.41
2022-11-21T11:09:28.603Z,99378.75
2022-11-21T11:12:46.620Z,99377.44
2022-11-21T11:15:24.942Z,99369.22
2022-11-21T11:17:57.691Z,99378.31
2022-11-21T11:20:41.231Z,99370.25
2022-11-21T11:23:20.175Z,99359.13
2022-11-21T11:25:50.252Z,99373.09
2022-11-21T11:28:19.390Z,99357.59
2022-11-21T11:30:48.111Z,99367.53
2022-11-21T11:33:37.501Z,99371.28
2022-11-21T11:36:13.110Z,99367.00
2022-11-21T11:38:44.172Z,99357.59
2022-11-21T11:41:26.371Z,99365.09
2022-11-21T11:44:39.031Z,99363.28
2022-11-21T11:47:30.709Z,99350.63
2022-11-21T11:50:13.960Z,99357.66
2022-11-21T11:52:59.462Z,99360.13
2022-11-21T11:55:47.602Z,99352.19
2022-11-21T11:58:39.788Z,99361.78
2022-11-21T12:01:13.745Z,99369.00
2022-11-21T12:04:12.852Z,99360.25
2022-11-21T12:07:46.646Z,99361.47
2022-11-21T12:10:09.197Z,99366.25
2022-11-21T12:12:39.382Z,99356.28
2022-11-21T12:15:37.096Z,99353.91
2022-11-21T12:18:26.062Z,99359.50
2022-11-21T12:21:00.122Z,99365.84
2022-11-21T12:23:47.401Z,99357.91
2022-11-21T12:26:20.396Z,99353.53
2022-11-21T12:28:56.357Z,99355.50
2022-11-21T12:31:32.445Z,99383.41
2022-11-21T12:34:04.629Z,99385.81
2022-11-21T12:36:51.214Z,99389.78
2022-11-21T12:39:48.176Z,99392.59
2022-11-21T12:42:44.325Z,99395.78
2022-11-21T12:45:29.116Z,99404.56
2022-11-21T12:48:32.927Z,99419.63
2022-11-21T12:51:42.171Z,99434.69
2022-11-21T12:54:37.997Z,99439.44
2022-11-21T12:57:11.833Z,99444.97
2022-11-21T13:00:09.964Z,99454.03
2022-11-21T13:02:39.966Z,99458.81
2022-11-21T13:05:12.816Z,99461.16
2022-11-21T13:07:40.847Z,99476.72
2022-11-21T13:10:15.226Z,99473.03
2022-11-21T13:13:06.310Z,99476.41
2022-11-21T13:15:49.680Z,99486.25
2022-11-21T13:18:25.544Z,99494.59
2022-11-21T13:20:52.959Z,99492.22
2022-11-21T13:23:37.403Z,99493.06
2022-11-21T13:26:30.607Z,99502.28
2022-11-21T13:29:16.167Z,99515.72
2022-11-21T13:31:43.696Z,99511.53
2022-11-21T13:34:33.912Z,99505.53
2022-11-21T13:37:01.380Z,99514.69
2022-11-21T13:39:31.831Z,99513.31
2022-11-21T13:42:21.448Z,99523.06
2022-11-21T13:44:49.592Z,99533.34
2022-11-21T13:47:25.680Z,99526.13
2022-11-21T13:50:04.298Z,99531.13
2022-11-21T13:53:10.718Z,99520.34
2022-11-21T13:56:08.482Z,99535.69
2022-11-21T13:58:56.470Z,99541.34
2022-11-21T14:01:48.541Z,99555.06
2022-11-21T14:04:21.546Z,99561.13
2022-11-21T14:06:48.595Z,99568.13
2022-11-21T14:09:21.571Z,99574.91
2022-11-21T14:12:13.732Z,99572.06
2022-11-21T14:14:53.558Z,99575.53
2022-11-21T14:17:50.822Z,99580.13
2022-11-21T14:20:25.546Z,99586.50
2022-11-21T14:23:05.388Z,99577.13
2022-11-21T14:25:41.124Z,99574.72
2022-11-21T14:28:24.229Z,99580.72
2022-11-21T14:30:58.226Z,99581.81
2022-11-21T14:33:25.163Z,99599.78
2022-11-21T14:36:20.727Z,99591.69
2022-11-21T14:39:13.904Z,99602.00
2022-11-21T14:41:39.993Z,99606.66
2022-11-21T14:44:15.752Z,99617.00
2022-11-21T14:46:44.221Z,99614.56
2022-11-21T14:49:17.340Z,99616.00
2022-11-21T14:51:58.320Z,99622.88
2022-11-21T14:54:28.872Z,99615.59
2022-11-21T14:57:02.725Z,99624.13
2022-11-21T14:59:39.252Z,99619.25
2022-11-21T15:02:17.262Z,99628.06
2022-11-21T15:04:45.179Z,99628.38
2022-11-21T15:07:31.875Z,99626.75
2022-11-21T15:10:28.642Z,99634.00
2022-11-21T15:28:09.452Z,99647.16
2022-11-21T15:30:38.188Z,99648.03
2022-11-21T15:33:18.947Z,99629.56
2022-11-21T15:35:54.925Z,99637.69
2022-11-21T15:38:31.046Z,99626.84
2022-11-21T15:41:10.251Z,99622.84
2022-11-21T15:43:48.156Z,99623.09
2022-11-21T15:46:29.870Z,99619.91
2022-11-21T15:48:59.107Z,99638.44
2022-11-21T15:54:34.741Z,99640.50
2022-11-21T15:57:01.527Z,99645.84
2022-11-21T15:59:28.789Z,99652.44
2022-11-21T16:01:55.784Z,99667.06
2022-11-21T16:04:26.012Z,99650.47
2022-11-21T16:06:54.101Z,99666.31
2022-11-21T16:09:23.049Z,99666.56
2022-11-21T16:11:49.934Z,99685.34
2022-11-21T16:14:18.613Z,99707.59
2022-11-21T16:16:47.502Z,99693.94
2022-11-21T16:19:15.601Z,99703.94
2022-11-21T16:21:42.944Z,99718.59
2022-11-21T16:24:09.817Z,99723.66
2022-11-21T16:26:36.884Z,99726.78
2022-11-21T16:29:05.760Z,99724.59
2022-11-21T16:31:33.350Z,99731.50
2022-11-21T16:34:00.860Z,99738.97
2022-11-21T16:36:32.417Z,99749.69
2022-11-21T16:39:07.869Z,99751.53
2022-11-21T16:41:36.411Z,99751.84
2022-11-21T16:44:03.384Z,99754.94
2022-11-21T16:46:30.286Z,99754.59
2022-11-21T16:49:02.660Z,99751.03
2022-11-21T16:51:30.541Z,99747.47
2022-11-21T16:54:01.585Z,99740.19
2022-11-21T16:56:29.881Z,99737.22
2022-11-21T16:58:56.789Z,99740.09
2022-11-21T17:01:26.128Z,99748.63
2022-11-21T17:03:53.238Z,99731.94
2022-11-21T17:06:22.466Z,99738.16
2022-11-21T17:08:49.770Z,99733.00
2022-11-21T17:11:19.692Z,99737.09
2022-11-21T17:13:47.765Z,99746.09
2022-11-21T17:16:16.953Z,99746.44
2022-11-21T17:18:44.777Z,99751.81
2022-11-21T17:21:15.755Z,99748.03
2022-11-21T17:23:44.535Z,99746.44
2022-11-21T17:26:16.557Z,99737.56
2022-11-21T17:28:46.103Z,99742.84
2022-11-21T17:31:15.930Z,99747.56
2022-11-21T17:33:43.771Z,99746.63
2022-11-21T17:36:15.053Z,99755.06
2022-11-21T17:38:47.081Z,99741.81
2022-11-21T17:41:16.877Z,99741.22
2022-11-21T17:43:44.734Z,99744.66
2022-11-21T17:46:14.739Z,99764.00
2022-11-21T17:48:41.667Z,99771.34
2022-11-21T17:51:12.527Z,99767.09
2022-11-21T17:53:41.733Z,99775.03
2022-11-21T17:56:12.456Z,99791.78
2022-11-21T17:58:39.403Z,99798.59
2022-11-21T18:01:08.011Z,99805.91
2022-11-21T18:03:35.866Z,99818.41
2022-11-21T18:06:15.257Z,99807.47
2022-11-21T18:08:44.247Z,99815.75
2022-11-21T18:11:12.907Z,99830.91
2022-11-21T18:13:40.792Z,99835.47
2022-11-21T18:16:10.527Z,99848.13
2022-11-21T18:18:37.691Z,99839.50
2022-11-21T18:21:13.170Z,99817.78
2022-11-21T18:23:40.093Z,99809.47
2022-11-21T18:26:11.297Z,99810.13
2022-11-21T18:28:38.384Z,99810.69
2022-11-21T18:31:10.330Z,99813.97
2022-11-21T18:33:38.418Z,99810.63
2022-11-21T18:36:06.748Z,99805.84
2022-11-21T18:38:56.590Z,99804.41
2022-11-21T18:41:24.738Z,99802.34
2022-11-21T18:44:00.456Z,99805.34
2022-11-21T18:46:28.851Z,99810.84
2022-11-21T18:49:11.935Z,99801.47
2022-11-21T18:51:38.818Z,99804.06
2022-11-21T18:54:08.699Z,99800.16
2022-11-21T18:56:37.627Z,99796.31
2022-11-21T18:59:06.121Z,99797.63
2022-11-21T19:01:34.940Z,99798.94
2022-11-21T19:04:02.134Z,99804.44
2022-11-21T19:06:29.343Z,99818.03
2022-11-21T19:08:58.346Z,99820.47
2022-11-21T19:11:28.603Z,99829.72
2022-11-21T19:13:56.751Z,99838.50
2022-11-21T19:16:26.521Z,99853.22
2022-11-21T19:21:43.684Z,99852.75
2022-11-21T19:24:13.426Z,99856.19
2022-11-21T19:26:41.154Z,99852.28
2022-11-21T19:29:08.274Z,99855.38
2022-11-21T19:31:40.748Z,99860.13
2022-11-21T19:34:11.900Z,99863.19
2022-11-21T19:36:39.547Z,99869.88
2022-11-21T19:39:06.695Z,99871.47
2022-11-21T19:41:33.572Z,99877.97
2022-11-21T19:44:01.729Z,99899.88
2022-11-21T19:46:37.011Z,99895.69
2022-11-21T19:49:05.101Z,99900.56
2022-11-21T19:51:40.858Z,99904.00
2022-11-21T19:54:09.698Z,99903.19
2022-11-21T19:56:37.337Z,99902.06
2022-11-21T19:59:05.005Z,99893.00
2022-11-21T20:01:33.664Z,99894.94
2022-11-21T20:04:02.811Z,99910.81
2022-11-21T20:06:34.846Z,99908.38
2022-11-21T20:09:05.898Z,99906.28
2022-11-21T20:11:33.469Z,99897.69
2022-11-21T20:14:00.627Z,99892.84
2022-11-21T20:16:33.378Z,99891.56
2022-11-21T20:19:02.964Z,99875.69
2022-11-21T20:21:30.318Z,99860.97
2022-11-21T20:23:57.385Z,99859.84
2022-11-21T20:26:25.018Z,99838.00
2022-11-21T20:28:52.127Z,99826.06
2022-11-21T20:31:21.788Z,99815.41
2022-11-21T20:36:39.152Z,99834.94
2022-11-21T20:39:18.128Z,99846.59
2022-11-21T20:41:46.044Z,99849.66
2022-11-21T20:47:03.342Z,99865.03
2022-11-21T20:49:30.564Z,99868.44
2022-11-21T20:54:44.671Z,99899.31
2022-11-21T20:57:15.091Z,99893.19
2022-11-21T20:59:43.005Z,99900.28
2022-11-21T21:02:14.350Z,99903.69
2022-11-21T21:04:41.838Z,99915.94
2022-11-21T21:07:08.853Z,99916.16
2022-11-21T21:09:40.914Z,99923.88
2022-11-21T21:12:08.732Z,99937.16
2022-11-21T21:14:35.862Z,99942.16
2022-11-21T21:17:02.826Z,99940.88
2022-11-21T21:19:30.026Z,99938.13
2022-11-21T21:21:57.267Z,99931.84
2022-11-21T21:24:24.094Z,99928.41
2022-11-21T21:26:50.963Z,99918.56
2022-11-21T21:29:19.690Z,99931.50
2022-11-21T21:31:51.073Z,99947.66
2022-11-21T21:34:18.981Z,99953.31
2022-11-21T21:36:45.905Z,99951.88
2022-11-21T21:39:12.955Z,99952.03
2022-11-21T21:41:41.551Z,99955.91
2022-11-21T21:44:08.365Z,99956.88
2022-11-21T21:46:35.229Z,99957.19
2022-11-21T21:49:02.145Z,99940.88
2022-11-21T21:51:30.771Z,99945.44
2022-11-21T21:53:59.191Z,99963.34
2022-11-21T21:56:27.963Z,99971.59
2022-11-21T21:58:57.118Z,99972.59
2022-11-21T22:01:26.826Z,99963.06
2022-11-21T22:04:02.462Z,99961.41
2022-11-21T22:06:30.082Z,99975.47
2022-11-21T22:08:57.170Z,99984.03
2022-11-21T22:11:31.936Z,99991.31
2022-11-21T22:14:01.673Z,99988.41
2022-11-21T22:16:29.255Z,99989.63
2022-11-21T22:18:56.831Z,99979.28
2022-11-21T22:21:34.788Z,99978.47
2022-11-21T22:24:31.053Z,99964.75
2022-11-21T22:26:58.143Z,99963.63
2022-11-21T22:29:25.458Z,99965.38
2022-11-21T22:31:52.511Z,99977.22
2022-11-21T22:34:19.453Z,99976.84
2022-11-21T22:36:46.995Z,99990.63
2022-11-21T22:39:14.413Z,99989.81
2022-11-21T22:41:41.356Z,99983.50
2022-11-21T22:44:08.560Z,99984.28
2022-11-21T22:46:35.463Z,99971.53
2022-11-21T22:49:02.366Z,99965.53
2022-11-21T22:51:29.980Z,99976.19
2022-11-21T22:53:58.062Z,99985.56
2022-11-21T22:56:26.661Z,99982.31
2022-11-21T22:58:54.073Z,99980.53
2022-11-21T23:01:24.087Z,99983.28
2022-11-21T23:03:51.774Z,99992.00
2022-11-21T23:06:21.378Z,100011.19
2022-11-21T23:08:48.558Z,100010.88
2022-11-21T23:11:26.301Z,100031.22
2022-11-21T23:13:54.204Z,100019.66
2022-11-21T23:16:21.594Z,100009.03
2022-11-21T23:18:48.868Z,100015.81
2022-11-21T23:21:15.671Z,100016.59
2022-11-21T23:23:44.110Z,100022.06
2022-11-21T23:26:11.794Z,100008.00
2022-11-21T23:28:38.742Z,100018.78
2022-11-21T23:31:05.575Z,100011.50
2022-11-21T23:33:32.362Z,99999.34
2022-11-21T23:35:59.312Z,100000.81
2022-11-21T23:38:26.728Z,100004.03
2022-11-21T23:40:53.620Z,99992.53
2022-11-21T23:43:20.748Z,100000.59
2022-11-21T23:45:52.056Z,99995.44
2022-11-21T23:48:19.847Z,100009.56
2022-11-21T23:50:48.230Z,100005.97
2022-11-21T23:53:15.247Z,100006.47
2022-11-21T23:55:43.463Z,100014.44
2022-11-21T23:58:12.661Z,100009.81
